Time;durP1;ratioP1;P1;durP2;ratioP2;P2;SDS_P1;SDS_P2;PMS_P1;PMS_P2;Temp;Humidity;BMP_temperature;BMP_pressure;BME280_temperature;BME280_humidity;BME280_pressure;Samples;Min_cycle;Max_cycle;Signal;HPM_P1;HPM_P2
2022/07/31 00:00:02;;;;;;;;;;;18.10;99.90;;;;;;5000718;28;19909;-73
2022/07/31 00:02:28;;;;;;;;;;;18.10;99.90;;;;;;4995030;28;19916;-73
2022/07/31 00:04:53;;;;;;;;;;;18.00;99.90;;;;;;4994352;28;19921;-73
2022/07/31 00:07:19;;;;;;;;;;;17.90;99.90;;;;;;4978166;28;20944;-73
2022/07/31 00:09:44;;;;;;;;;;;17.90;99.90;;;;;;4984908;28;19932;-73
2022/07/31 00:12:10;;;;;;;;;;;17.90;99.90;;;;;;4986938;28;19936;-73
2022/07/31 00:14:35;;;;;;;;;;;17.80;99.90;;;;;;4990893;28;19913;-73
2022/07/31 00:17:01;;;;;;;;;;;17.80;99.90;;;;;;4997931;28;19944;-72
2022/07/31 00:19:26;;;;;;;;;;;17.80;99.90;;;;;;4998354;28;19980;-73
2022/07/31 00:21:52;;;;;;;;;;;17.80;99.90;;;;;;4997964;28;20296;-72
2022/07/31 00:24:18;;;;;;;;;;;17.80;99.90;;;;;;4996100;28;20408;-73
2022/07/31 00:26:43;;;;;;;;;;;17.80;99.90;;;;;;4992985;28;19961;-73
2022/07/31 00:29:09;;;;;;;;;;;17.70;99.90;;;;;;4998778;28;20024;-73
2022/07/31 00:31:35;;;;;;;;;;;17.70;99.90;;;;;;4991444;28;20367;-73
2022/07/31 00:34:00;;;;;;;;;;;17.70;99.90;;;;;;4990995;28;19909;-73
2022/07/31 00:36:26;;;;;;;;;;;17.80;99.90;;;;;;4992015;28;19914;-73
2022/07/31 00:38:51;;;;;;;;;;;17.80;99.90;;;;;;5000289;28;20281;-73
2022/07/31 00:41:17;;;;;;;;;;;17.80;99.90;;;;;;4991046;28;19921;-73
2022/07/31 00:43:43;;;;;;;;;;;17.80;99.90;;;;;;4996376;28;19913;-73
2022/07/31 00:46:08;;;;;;;;;;;17.80;99.90;;;;;;4999144;28;19922;-73
2022/07/31 00:48:34;;;;;;;;;;;17.80;99.90;;;;;;4994052;28;19910;-73
2022/07/31 00:50:59;;;;;;;;;;;17.80;99.90;;;;;;4999874;28;19959;-73
2022/07/31 00:53:25;;;;;;;;;;;17.70;99.90;;;;;;4994155;28;20349;-73
2022/07/31 00:55:50;;;;;;;;;;;17.80;99.90;;;;;;4985259;28;19987;-74
2022/07/31 00:58:16;;;;;;;;;;;17.80;99.90;;;;;;4998270;28;20332;-73
2022/07/31 01:00:42;;;;;;;;;;;17.80;99.90;;;;;;5000149;28;19958;-73
2022/07/31 01:03:07;;;;;;;;;;;17.90;99.90;;;;;;4993355;28;20000;-73
2022/07/31 01:05:33;;;;;;;;;;;17.90;99.90;;;;;;4988398;28;19921;-73
2022/07/31 01:07:58;;;;;;;;;;;17.90;99.90;;;;;;4993750;28;20224;-73
2022/07/31 01:10:45;;;;;;;;;;;17.90;99.90;;;;;;4980775;28;19920;-73
2022/07/31 01:13:37;;;;;;;;;;;17.90;99.90;;;;;;4981452;28;19973;-73
2022/07/31 01:16:03;;;;;;;;;;;17.90;99.90;;;;;;4994116;28;19913;-73
2022/07/31 01:18:30;;;;;;;;;;;17.80;99.90;;;;;;4998215;28;19917;-73
2022/07/31 01:20:57;;;;;;;;;;;17.80;99.90;;;;;;5000470;28;19950;-73
2022/07/31 01:23:43;;;;;;;;;;;17.70;99.90;;;;;;4987280;28;19913;-74
2022/07/31 01:26:11;;;;;;;;;;;17.60;99.90;;;;;;4994892;28;19962;-73
2022/07/31 01:28:55;;;;;;;;;;;17.50;99.90;;;;;;5000922;28;19909;-73
2022/07/31 01:31:24;;;;;;;;;;;17.40;99.90;;;;;;5001072;28;19909;-73
2022/07/31 01:33:52;;;;;;;;;;;17.30;99.90;;;;;;4990926;28;19920;-73
2022/07/31 01:36:23;;;;;;;;;;;17.20;99.90;;;;;;4996597;28;19999;-73
2022/07/31 01:38:50;;;;;;;;;;;17.10;99.90;;;;;;4988889;28;19940;-73
2022/07/31 01:41:17;;;;;;;;;;;17.00;99.90;;;;;;4979747;28;20101;-73
2022/07/31 01:43:45;;;;;;;;;;;16.90;99.90;;;;;;4985175;28;19953;-74
2022/07/31 01:46:12;;;;;;;;;;;16.90;99.90;;;;;;4995435;28;19921;-74
2022/07/31 01:48:38;;;;;;;;;;;16.80;99.90;;;;;;4999201;28;20273;-73
2022/07/31 01:51:05;;;;;;;;;;;16.80;99.90;;;;;;4991529;28;19921;-74
2022/07/31 01:53:31;;;;;;;;;;;16.90;99.90;;;;;;4953407;28;1132807;-75
2022/07/31 01:55:57;;;;;;;;;;;16.90;99.90;;;;;;4995945;28;19921;-73
2022/07/31 01:58:24;;;;;;;;;;;16.90;99.90;;;;;;4994346;28;19914;-73
2022/07/31 02:00:51;;;;;;;;;;;16.80;99.90;;;;;;4999337;28;19913;-72
2022/07/31 02:03:16;;;;;;;;;;;16.80;99.90;;;;;;4997659;28;19913;-73
2022/07/31 02:05:43;;;;;;;;;;;16.90;99.90;;;;;;4998331;28;19921;-73
2022/07/31 02:08:09;;;;;;;;;;;16.90;99.90;;;;;;5003628;28;19959;-74
2022/07/31 02:10:36;;;;;;;;;;;16.90;99.90;;;;;;4997084;28;19940;-73
2022/07/31 02:13:02;;;;;;;;;;;16.90;99.90;;;;;;4991319;28;20023;-73
2022/07/31 02:15:28;;;;;;;;;;;16.90;99.90;;;;;;5003884;28;19949;-73
2022/07/31 02:17:54;;;;;;;;;;;16.90;99.90;;;;;;5000601;28;19920;-73
2022/07/31 02:20:20;;;;;;;;;;;16.80;99.90;;;;;;4995953;28;19919;-73
2022/07/31 02:22:46;;;;;;;;;;;16.80;99.90;;;;;;5003016;28;20012;-73
2022/07/31 02:25:11;;;;;;;;;;;16.90;99.90;;;;;;5002659;28;20031;-73
2022/07/31 02:27:38;;;;;;;;;;;16.90;99.90;;;;;;4992432;28;19917;-73
2022/07/31 02:30:04;;;;;;;;;;;17.00;99.90;;;;;;4985713;28;19910;-74
2022/07/31 02:32:31;;;;;;;;;;;17.00;99.90;;;;;;4992006;28;19914;-73
2022/07/31 02:34:59;;;;;;;;;;;17.20;99.90;;;;;;5003897;28;19960;-73
2022/07/31 02:37:25;;;;;;;;;;;17.30;99.90;;;;;;4998653;28;19913;-74
2022/07/31 02:39:51;;;;;;;;;;;17.40;99.90;;;;;;5002082;28;19956;-73
2022/07/31 02:42:17;;;;;;;;;;;17.50;99.90;;;;;;5000305;28;20072;-73
2022/07/31 02:44:43;;;;;;;;;;;17.60;99.90;;;;;;5003003;28;19917;-74
2022/07/31 02:47:10;;;;;;;;;;;17.70;99.90;;;;;;4985514;28;19924;-73
2022/07/31 02:49:36;;;;;;;;;;;17.80;99.90;;;;;;5002338;28;19913;-74
2022/07/31 02:52:03;;;;;;;;;;;17.80;99.90;;;;;;5005368;28;19917;-73
2022/07/31 02:54:28;;;;;;;;;;;17.90;99.90;;;;;;4992253;28;19913;-74
2022/07/31 02:56:54;;;;;;;;;;;17.90;99.90;;;;;;4991737;28;19921;-74
2022/07/31 02:59:21;;;;;;;;;;;18.00;99.90;;;;;;5001535;28;19917;-73
2022/07/31 03:01:46;;;;;;;;;;;18.00;99.90;;;;;;5001180;28;19917;-74
2022/07/31 03:04:12;;;;;;;;;;;18.10;99.90;;;;;;4996656;28;19924;-73
2022/07/31 03:06:38;;;;;;;;;;;18.20;99.90;;;;;;4991112;28;19925;-74
2022/07/31 03:09:03;;;;;;;;;;;18.20;99.90;;;;;;5002624;28;19975;-74
2022/07/31 03:11:29;;;;;;;;;;;18.30;99.90;;;;;;5003169;28;19920;-73
2022/07/31 03:13:57;;;;;;;;;;;18.30;99.90;;;;;;5004758;28;19910;-74
2022/07/31 03:16:23;;;;;;;;;;;18.30;99.90;;;;;;5003088;28;19932;-74
2022/07/31 03:18:48;;;;;;;;;;;18.30;99.90;;;;;;5001764;28;19914;-74
2022/07/31 03:21:14;;;;;;;;;;;18.40;99.90;;;;;;4998495;28;20821;-74
2022/07/31 03:23:40;;;;;;;;;;;18.30;99.90;;;;;;4984842;28;20340;-73
2022/07/31 03:26:06;;;;;;;;;;;18.40;99.90;;;;;;4976955;28;20288;-73
2022/07/31 03:28:34;;;;;;;;;;;18.30;99.90;;;;;;4997971;28;19920;-73
2022/07/31 03:31:00;;;;;;;;;;;18.40;99.90;;;;;;5002307;28;20369;-73
2022/07/31 03:33:26;;;;;;;;;;;18.30;99.90;;;;;;4988486;28;19920;-74
2022/07/31 03:35:52;;;;;;;;;;;18.30;99.90;;;;;;4992929;28;20024;-73
2022/07/31 03:38:17;;;;;;;;;;;18.30;99.90;;;;;;4991369;28;20064;-73
2022/07/31 03:40:43;;;;;;;;;;;18.40;99.90;;;;;;4992998;28;20000;-73
2022/07/31 03:43:09;;;;;;;;;;;18.40;99.90;;;;;;4997687;28;19914;-73
2022/07/31 03:45:35;;;;;;;;;;;18.30;99.90;;;;;;4996455;28;20060;-73
2022/07/31 03:48:01;;;;;;;;;;;18.30;99.90;;;;;;5002746;28;19947;-74
2022/07/31 03:50:27;;;;;;;;;;;18.20;99.90;;;;;;5003077;28;19914;-73
2022/07/31 03:52:53;;;;;;;;;;;18.20;99.90;;;;;;5000421;28;20408;-73
2022/07/31 03:55:18;;;;;;;;;;;18.20;99.90;;;;;;5007911;28;19942;-73
2022/07/31 03:57:44;;;;;;;;;;;18.30;99.90;;;;;;5001303;28;19979;-73
2022/07/31 04:00:10;;;;;;;;;;;18.40;99.90;;;;;;5003932;28;20414;-74
2022/07/31 04:02:35;;;;;;;;;;;18.50;99.90;;;;;;4999349;28;20150;-74
2022/07/31 04:05:01;;;;;;;;;;;18.50;99.90;;;;;;5000854;28;20490;-73
2022/07/31 04:07:27;;;;;;;;;;;18.50;99.90;;;;;;4999602;28;20301;-73
2022/07/31 04:09:52;;;;;;;;;;;18.60;99.90;;;;;;4998255;28;19913;-74
2022/07/31 04:12:18;;;;;;;;;;;18.60;99.90;;;;;;4994964;28;19914;-74
2022/07/31 04:14:44;;;;;;;;;;;18.60;99.90;;;;;;4993805;28;19913;-74
2022/07/31 04:17:09;;;;;;;;;;;18.60;99.90;;;;;;4997942;28;20360;-74
2022/07/31 04:19:35;;;;;;;;;;;18.60;99.90;;;;;;5004088;28;19910;-74
2022/07/31 04:22:00;;;;;;;;;;;18.60;99.90;;;;;;5001290;28;19916;-74
2022/07/31 04:24:26;;;;;;;;;;;18.60;99.90;;;;;;4984891;28;20472;-74
2022/07/31 04:26:55;;;;;;;;;;;18.70;99.90;;;;;;4989882;28;19921;-74
2022/07/31 04:29:21;;;;;;;;;;;18.70;99.90;;;;;;4994717;28;20006;-74
2022/07/31 04:31:46;;;;;;;;;;;18.80;99.90;;;;;;4993960;28;20349;-74
2022/07/31 04:34:12;;;;;;;;;;;18.80;99.90;;;;;;4999902;28;19992;-74
2022/07/31 04:36:38;;;;;;;;;;;18.80;99.90;;;;;;5002573;28;20295;-74
2022/07/31 04:39:03;;;;;;;;;;;18.80;99.90;;;;;;4999081;28;19913;-73
2022/07/31 04:41:29;;;;;;;;;;;18.80;99.90;;;;;;5000450;28;20451;-73
2022/07/31 04:43:56;;;;;;;;;;;18.80;99.90;;;;;;5002264;28;19913;-73
2022/07/31 04:46:22;;;;;;;;;;;18.80;99.90;;;;;;4996722;28;19926;-72
2022/07/31 04:48:48;;;;;;;;;;;18.90;99.90;;;;;;4998139;28;19914;-73
2022/07/31 04:51:18;;;;;;;;;;;18.90;99.90;;;;;;5001619;28;20395;-73
2022/07/31 04:53:44;;;;;;;;;;;18.90;99.90;;;;;;4992091;28;19975;-73
2022/07/31 04:58:54;;;;;;;;;;;19.00;99.90;;;;;;4995339;28;20119;-73
2022/07/31 05:01:19;;;;;;;;;;;19.00;99.90;;;;;;5002242;28;20036;-73
2022/07/31 05:03:45;;;;;;;;;;;19.00;99.90;;;;;;4996415;28;19913;-73
2022/07/31 05:06:10;;;;;;;;;;;19.00;99.90;;;;;;4998321;28;20030;-74
2022/07/31 05:08:36;;;;;;;;;;;19.00;99.90;;;;;;5001010;28;19914;-74
2022/07/31 05:13:46;;;;;;;;;;;19.10;99.90;;;;;;4997698;28;19974;-73
2022/07/31 05:16:11;;;;;;;;;;;19.00;99.90;;;;;;5000628;28;19917;-73
2022/07/31 05:18:37;;;;;;;;;;;19.00;99.90;;;;;;5000589;28;19918;-73
2022/07/31 05:21:02;;;;;;;;;;;19.10;99.90;;;;;;4990770;28;19996;-73
2022/07/31 05:23:28;;;;;;;;;;;19.10;99.90;;;;;;4990259;28;19920;-73
2022/07/31 05:25:54;;;;;;;;;;;19.20;99.90;;;;;;5001293;28;19917;-73
2022/07/31 05:28:19;;;;;;;;;;;19.20;99.90;;;;;;4997808;28;20339;-73
2022/07/31 05:30:45;;;;;;;;;;;19.30;99.90;;;;;;5001820;28;19963;-73
2022/07/31 05:33:10;;;;;;;;;;;19.30;99.90;;;;;;4990867;28;20475;-73
2022/07/31 05:35:36;;;;;;;;;;;19.30;99.90;;;;;;4997422;28;19925;-73
2022/07/31 05:38:01;;;;;;;;;;;19.30;99.90;;;;;;4988510;28;19933;-73
2022/07/31 05:40:27;;;;;;;;;;;19.40;99.90;;;;;;5000799;28;20128;-73
2022/07/31 05:42:54;;;;;;;;;;;19.30;99.90;;;;;;4998500;28;19914;-73
2022/07/31 05:45:19;;;;;;;;;;;19.30;99.90;;;;;;5001649;28;20853;-73
2022/07/31 05:47:45;;;;;;;;;;;19.40;99.90;;;;;;4983350;28;19924;-73
2022/07/31 05:50:10;;;;;;;;;;;19.40;99.90;;;;;;4993253;28;19960;-73
2022/07/31 05:52:36;;;;;;;;;;;19.40;99.90;;;;;;4999196;28;19925;-72
2022/07/31 05:55:02;;;;;;;;;;;19.40;99.90;;;;;;4990377;28;19964;-73
2022/07/31 05:57:27;;;;;;;;;;;19.40;99.90;;;;;;5000884;28;19932;-73
2022/07/31 05:59:53;;;;;;;;;;;19.50;99.90;;;;;;4996787;28;19913;-73
2022/07/31 06:02:18;;;;;;;;;;;19.50;99.90;;;;;;4996929;28;19921;-73
2022/07/31 06:04:44;;;;;;;;;;;19.50;99.90;;;;;;5001909;28;20308;-73
2022/07/31 06:07:09;;;;;;;;;;;19.50;99.90;;;;;;5001938;28;20357;-74
2022/07/31 06:09:35;;;;;;;;;;;19.40;99.90;;;;;;4992901;28;20450;-73
2022/07/31 06:12:01;;;;;;;;;;;19.40;99.90;;;;;;4999342;28;19952;-73
2022/07/31 06:14:27;;;;;;;;;;;19.50;99.90;;;;;;4991386;28;19914;-73
2022/07/31 06:16:52;;;;;;;;;;;19.70;99.90;;;;;;4992755;28;19913;-73
2022/07/31 06:19:19;;;;;;;;;;;19.90;99.90;;;;;;4997422;28;19956;-73
2022/07/31 06:21:44;;;;;;;;;;;20.20;99.90;;;;;;4982015;28;19984;-73
2022/07/31 06:24:10;;;;;;;;;;;20.70;99.90;;;;;;4991403;28;20343;-73
2022/07/31 06:26:36;;;;;;;;;;;21.00;99.90;;;;;;4997212;28;20375;-73
2022/07/31 06:29:02;;;;;;;;;;;21.20;99.90;;;;;;4990189;28;19910;-73
2022/07/31 06:31:28;;;;;;;;;;;21.30;99.90;;;;;;4997380;28;19917;-72
2022/07/31 06:33:53;;;;;;;;;;;21.30;99.90;;;;;;4987329;28;19950;-74
2022/07/31 06:36:19;;;;;;;;;;;21.30;99.90;;;;;;4990257;28;20375;-72
2022/07/31 06:38:44;;;;;;;;;;;21.20;99.90;;;;;;4990133;28;20363;-72
2022/07/31 06:41:10;;;;;;;;;;;21.20;99.90;;;;;;4978093;28;20378;-72
2022/07/31 06:43:40;;;;;;;;;;;21.10;99.90;;;;;;4786860;28;10000414;-72
2022/07/31 06:46:05;;;;;;;;;;;21.20;99.90;;;;;;4979077;28;19932;-72
2022/07/31 06:48:31;;;;;;;;;;;21.20;99.90;;;;;;4979371;28;20447;-72
2022/07/31 06:50:56;;;;;;;;;;;21.20;99.90;;;;;;4985914;28;19920;-72
2022/07/31 06:53:22;;;;;;;;;;;21.20;99.90;;;;;;4990811;28;19921;-73
2022/07/31 06:55:47;;;;;;;;;;;21.00;99.90;;;;;;5007719;28;19924;-72
2022/07/31 06:58:13;;;;;;;;;;;21.00;99.90;;;;;;4999262;28;19913;-72
2022/07/31 07:00:38;;;;;;;;;;;21.10;99.90;;;;;;4991063;28;20337;-72
2022/07/31 07:03:04;;;;;;;;;;;21.30;99.90;;;;;;4997659;23;19917;-72
2022/07/31 07:05:30;;;;;;;;;;;21.30;99.90;;;;;;4997336;28;19999;-73
2022/07/31 07:07:55;;;;;;;;;;;21.40;99.90;;;;;;4991547;28;20008;-73
2022/07/31 07:10:21;;;;;;;;;;;21.40;99.90;;;;;;4991630;28;19920;-73
2022/07/31 07:12:46;;;;;;;;;;;21.40;99.90;;;;;;4989995;28;19921;-72
2022/07/31 07:15:12;;;;;;;;;;;21.70;99.90;;;;;;4993334;28;19991;-72
2022/07/31 07:17:37;;;;;;;;;;;21.70;99.90;;;;;;4982899;28;20001;-72
2022/07/31 07:20:03;;;;;;;;;;;21.80;99.90;;;;;;4982898;28;20019;-73
2022/07/31 07:22:31;;;;;;;;;;;21.90;99.90;;;;;;4988377;28;19918;-72
2022/07/31 07:24:56;;;;;;;;;;;22.40;99.90;;;;;;4981601;28;19921;-73
2022/07/31 07:27:22;;;;;;;;;;;22.80;99.90;;;;;;4986846;28;20575;-75
2022/07/31 07:29:47;;;;;;;;;;;22.90;99.90;;;;;;4992418;28;19959;-74
2022/07/31 07:32:15;;;;;;;;;;;23.20;99.90;;;;;;4990252;28;19914;-74
2022/07/31 07:34:40;;;;;;;;;;;23.30;99.90;;;;;;4989392;28;19917;-74
2022/07/31 07:37:06;;;;;;;;;;;23.70;99.90;;;;;;4985637;28;20257;-75
2022/07/31 07:39:32;;;;;;;;;;;23.80;99.90;;;;;;4983938;28;19940;-75
2022/07/31 07:41:57;;;;;;;;;;;24.00;99.90;;;;;;4991493;28;19913;-74
2022/07/31 07:44:23;;;;;;;;;;;24.20;99.90;;;;;;4984665;28;20274;-75
2022/07/31 07:46:48;;;;;;;;;;;24.10;99.90;;;;;;4986610;28;20252;-74
2022/07/31 07:49:14;;;;;;;;;;;23.80;99.90;;;;;;4984575;28;19914;-75
2022/07/31 07:51:40;;;;;;;;;;;23.60;99.90;;;;;;4988325;28;20587;-74
2022/07/31 07:54:05;;;;;;;;;;;23.40;99.90;;;;;;4991976;28;20328;-74
2022/07/31 07:56:31;;;;;;;;;;;23.40;99.90;;;;;;4991985;28;20379;-74
2022/07/31 07:58:56;;;;;;;;;;;23.70;99.90;;;;;;4994385;28;19979;-75
2022/07/31 08:01:22;;;;;;;;;;;23.80;99.90;;;;;;4994288;28;20288;-75
2022/07/31 08:03:48;;;;;;;;;;;24.90;99.90;;;;;;4992529;28;19968;-74
2022/07/31 08:06:13;;;;;;;;;;;24.90;99.90;;;;;;4990655;28;20701;-75
2022/07/31 08:08:39;;;;;;;;;;;25.90;99.90;;;;;;4991563;28;20110;-74
2022/07/31 08:11:04;;;;;;;;;;;26.20;99.90;;;;;;4988497;28;19920;-75
2022/07/31 08:13:30;;;;;;;;;;;28.10;99.90;;;;;;4997255;28;20384;-76
2022/07/31 08:15:55;;;;;;;;;;;31.70;99.90;;;;;;4999519;28;19913;-76
2022/07/31 08:18:21;;;;;;;;;;;33.50;91.90;;;;;;4999606;28;20304;-75
2022/07/31 08:20:47;;;;;;;;;;;35.40;78.40;;;;;;4998033;28;19935;-76
2022/07/31 08:23:12;;;;;;;;;;;37.60;68.20;;;;;;4994034;28;20301;-75
2022/07/31 08:25:38;;;;;;;;;;;38.50;60.20;;;;;;4997350;28;19929;-80
2022/07/31 08:28:03;;;;;;;;;;;38.20;57.40;;;;;;4996993;28;19941;-80
2022/07/31 08:30:29;;;;;;;;;;;38.90;56.30;;;;;;4976222;28;21083;-79
2022/07/31 08:32:55;;;;;;;;;;;38.00;50.80;;;;;;4996744;28;20354;-78
2022/07/31 08:35:21;;;;;;;;;;;37.60;51.30;;;;;;5001004;28;20315;-79
2022/07/31 08:37:46;;;;;;;;;;;34.50;56.40;;;;;;4981327;28;19980;-79
2022/07/31 08:40:12;;;;;;;;;;;33.30;60.90;;;;;;4994946;28;20364;-78
2022/07/31 08:42:37;;;;;;;;;;;32.60;66.40;;;;;;4970369;28;20495;-80
2022/07/31 08:45:07;;;;;;;;;;;30.70;77.40;;;;;;4987495;28;20477;-79
2022/07/31 08:47:34;;;;;;;;;;;29.50;91.20;;;;;;4969511;28;20384;-79
2022/07/31 08:50:20;;;;;;;;;;;28.20;97.00;;;;;;4992511;28;19928;-78
2022/07/31 08:52:48;;;;;;;;;;;26.90;99.90;;;;;;4991174;28;19917;-81
2022/07/31 08:55:14;;;;;;;;;;;26.20;99.90;;;;;;4976226;28;19924;-82
2022/07/31 08:57:40;;;;;;;;;;;25.90;99.90;;;;;;4991794;28;20372;-80
2022/07/31 09:00:11;;;;;;;;;;;25.50;99.90;;;;;;4992642;28;20008;-79
2022/07/31 09:02:40;;;;;;;;;;;25.40;99.90;;;;;;4976015;28;20444;-80
2022/07/31 09:05:06;;;;;;;;;;;25.30;99.90;;;;;;4974578;28;19921;-79
2022/07/31 09:07:34;;;;;;;;;;;25.10;99.90;;;;;;4990007;28;19921;-77
2022/07/31 09:10:14;;;;;;;;;;;24.90;99.90;;;;;;4971060;28;20341;-77
2022/07/31 09:12:40;;;;;;;;;;;24.80;99.90;;;;;;4988710;28;19949;-78
2022/07/31 09:15:18;;;;;;;;;;;24.80;99.90;;;;;;4995850;28;20284;-78
2022/07/31 09:17:44;;;;;;;;;;;25.30;99.90;;;;;;4966202;28;19913;-79
2022/07/31 09:20:16;;;;;;;;;;;25.60;99.90;;;;;;4985889;28;21020;-77
2022/07/31 09:22:41;;;;;;;;;;;25.90;99.90;;;;;;4967477;28;19964;-77
2022/07/31 09:25:10;;;;;;;;;;;25.70;99.90;;;;;;4988213;28;19996;-76
2022/07/31 09:27:36;;;;;;;;;;;25.30;99.90;;;;;;4984378;28;19981;-78
2022/07/31 09:30:03;;;;;;;;;;;25.00;99.90;;;;;;4987500;28;19999;-77
2022/07/31 09:32:29;;;;;;;;;;;24.70;99.90;;;;;;4968942;28;19964;-78
2022/07/31 09:35:04;;;;;;;;;;;24.60;99.90;;;;;;4991410;28;19914;-78
2022/07/31 09:37:30;;;;;;;;;;;24.20;99.90;;;;;;4976961;28;19918;-78
2022/07/31 09:39:56;;;;;;;;;;;24.20;99.90;;;;;;4992101;28;20399;-78
2022/07/31 09:42:22;;;;;;;;;;;24.20;99.90;;;;;;4989928;28;19941;-78
2022/07/31 09:44:53;;;;;;;;;;;24.50;99.90;;;;;;4975315;28;19956;-78
2022/07/31 09:47:20;;;;;;;;;;;24.60;99.90;;;;;;4973195;28;19921;-78
2022/07/31 09:49:51;;;;;;;;;;;25.50;99.90;;;;;;4969270;28;19913;-78
2022/07/31 09:52:18;;;;;;;;;;;26.50;99.90;;;;;;4970542;28;19909;-77
2022/07/31 09:54:46;;;;;;;;;;;27.10;99.90;;;;;;4998397;28;19917;-78
2022/07/31 09:57:13;;;;;;;;;;;26.80;99.90;;;;;;4978410;28;19935;-78
2022/07/31 09:59:38;;;;;;;;;;;26.40;99.90;;;;;;4967463;28;19913;-78
2022/07/31 10:02:04;;;;;;;;;;;26.10;99.90;;;;;;4975082;28;19959;-78
2022/07/31 10:04:30;;;;;;;;;;;25.80;99.90;;;;;;4972473;28;19925;-78
2022/07/31 10:06:56;;;;;;;;;;;25.50;99.90;;;;;;4974579;28;20175;-78
2022/07/31 10:09:24;;;;;;;;;;;25.70;99.90;;;;;;4981367;28;20020;-78
2022/07/31 10:11:50;;;;;;;;;;;26.20;99.90;;;;;;4995716;28;19917;-78
2022/07/31 10:14:27;;;;;;;;;;;26.60;99.90;;;;;;4974236;28;19913;-78
2022/07/31 10:16:55;;;;;;;;;;;26.40;99.90;;;;;;4990698;28;20396;-79
2022/07/31 10:19:21;;;;;;;;;;;26.90;99.90;;;;;;3961703;28;10000733;-79
2022/07/31 10:21:51;;;;;;;;;;;26.80;99.90;;;;;;4996397;28;19959;-76
2022/07/31 10:24:18;;;;;;;;;;;27.00;99.90;;;;;;4993827;28;20000;-76
2022/07/31 10:26:44;;;;;;;;;;;26.90;99.90;;;;;;4990808;28;19956;-76
2022/07/31 10:29:09;;;;;;;;;;;26.80;99.90;;;;;;4980039;28;19917;-76
2022/07/31 10:31:35;;;;;;;;;;;26.50;99.90;;;;;;4997091;28;19913;-75
2022/07/31 10:34:06;;;;;;;;;;;25.70;99.90;;;;;;5001400;28;20008;-76
2022/07/31 10:36:33;;;;;;;;;;;25.20;99.90;;;;;;4998084;28;19920;-75
2022/07/31 10:39:04;;;;;;;;;;;24.90;99.90;;;;;;4997619;28;20372;-76
2022/07/31 10:41:49;;;;;;;;;;;24.60;99.90;;;;;;4971132;28;20040;-75
2022/07/31 10:44:26;;;;;;;;;;;24.60;99.90;;;;;;5000060;28;20008;-75
2022/07/31 10:46:52;;;;;;;;;;;24.70;99.90;;;;;;4977878;28;19921;-74
2022/07/31 10:49:18;;;;;;;;;;;24.50;99.90;;;;;;4981831;28;19913;-75
2022/07/31 10:51:47;;;;;;;;;;;24.50;99.90;;;;;;4977699;28;19935;-75
2022/07/31 10:54:14;;;;;;;;;;;24.60;99.90;;;;;;4999155;28;20537;-75
2022/07/31 10:56:42;;;;;;;;;;;24.70;99.90;;;;;;4999080;28;19940;-76
2022/07/31 10:59:08;;;;;;;;;;;24.80;99.90;;;;;;4993312;28;19913;-75
2022/07/31 11:01:43;;;;;;;;;;;25.30;99.90;;;;;;5002897;28;20371;-75
2022/07/31 11:04:09;;;;;;;;;;;25.60;99.90;;;;;;4999602;28;20355;-75
2022/07/31 11:06:42;;;;;;;;;;;25.60;99.90;;;;;;4984518;28;19921;-75
2022/07/31 11:09:07;;;;;;;;;;;25.60;99.90;;;;;;5001548;28;20369;-75
2022/07/31 11:11:34;;;;;;;;;;;25.60;99.90;;;;;;4984463;28;19929;-75
2022/07/31 11:14:00;;;;;;;;;;;25.30;99.90;;;;;;4982187;28;20357;-75
2022/07/31 11:16:26;;;;;;;;;;;25.10;99.90;;;;;;4991392;28;19990;-75
2022/07/31 11:18:55;;;;;;;;;;;24.80;99.90;;;;;;5000319;28;19949;-76
2022/07/31 11:21:28;;;;;;;;;;;24.40;99.90;;;;;;5001021;28;19913;-74
2022/07/31 11:23:54;;;;;;;;;;;24.10;99.90;;;;;;4998660;28;19944;-77
2022/07/31 11:26:19;;;;;;;;;;;24.00;99.90;;;;;;4983369;28;19929;-75
2022/07/31 11:28:45;;;;;;;;;;;24.00;99.90;;;;;;4984913;28;19936;-74
2022/07/31 11:31:10;;;;;;;;;;;24.30;99.90;;;;;;4997104;28;19918;-74
2022/07/31 11:33:39;;;;;;;;;;;24.50;99.90;;;;;;4998011;28;19910;-75
2022/07/31 11:36:06;;;;;;;;;;;24.70;99.90;;;;;;4990977;28;19959;-75
2022/07/31 11:38:32;;;;;;;;;;;24.70;99.90;;;;;;4997586;28;19913;-74
2022/07/31 11:40:57;;;;;;;;;;;24.70;99.90;;;;;;4997967;28;19936;-74
2022/07/31 11:43:23;;;;;;;;;;;24.80;99.90;;;;;;4985027;28;19913;-75
2022/07/31 11:45:50;;;;;;;;;;;25.00;99.90;;;;;;5000626;28;20299;-75
2022/07/31 11:48:16;;;;;;;;;;;25.10;99.90;;;;;;4986598;28;20007;-75
2022/07/31 11:50:43;;;;;;;;;;;25.10;99.90;;;;;;4982706;28;20039;-73
2022/07/31 11:53:10;;;;;;;;;;;25.50;99.90;;;;;;5001500;28;19914;-76
2022/07/31 11:55:49;;;;;;;;;;;25.80;99.90;;;;;;5001625;28;19913;-75
2022/07/31 11:58:15;;;;;;;;;;;26.10;99.90;;;;;;5000900;28;19921;-74
2022/07/31 12:00:47;;;;;;;;;;;25.90;99.90;;;;;;4980763;28;20361;-75
2022/07/31 12:03:14;;;;;;;;;;;26.00;99.90;;;;;;4999834;28;20029;-74
2022/07/31 12:05:45;;;;;;;;;;;26.10;99.90;;;;;;4981830;28;20014;-75
2022/07/31 12:08:12;;;;;;;;;;;26.20;99.90;;;;;;4984693;28;20252;-75
2022/07/31 12:10:38;;;;;;;;;;;26.20;99.90;;;;;;4984715;28;19983;-75
2022/07/31 12:13:04;;;;;;;;;;;26.20;99.90;;;;;;4987502;28;20276;-74
2022/07/31 12:15:29;;;;;;;;;;;26.60;99.90;;;;;;4975293;28;19913;-74
2022/07/31 12:17:59;;;;;;;;;;;27.00;99.90;;;;;;4980770;28;20088;-74
2022/07/31 12:20:24;;;;;;;;;;;27.20;99.90;;;;;;4989719;28;19946;-74
2022/07/31 12:22:58;;;;;;;;;;;27.30;99.90;;;;;;4993201;28;20056;-74
2022/07/31 12:25:23;;;;;;;;;;;27.20;99.90;;;;;;4992530;28;19923;-74
2022/07/31 12:27:53;;;;;;;;;;;27.30;99.90;;;;;;4979281;28;20208;-73
2022/07/31 12:30:18;;;;;;;;;;;27.50;99.90;;;;;;4969653;28;19913;-75
2022/07/31 12:32:44;;;;;;;;;;;27.80;99.90;;;;;;4991501;28;19936;-73
2022/07/31 12:35:10;;;;;;;;;;;27.60;99.90;;;;;;4992021;28;19925;-74
2022/07/31 12:37:46;;;;;;;;;;;27.50;99.90;;;;;;4979802;28;20508;-73
2022/07/31 12:40:22;;;;;;;;;;;27.40;99.90;;;;;;4984434;28;20367;-74
2022/07/31 12:42:48;;;;;;;;;;;27.50;99.90;;;;;;4988118;28;19925;-75
2022/07/31 12:45:13;;;;;;;;;;;27.40;99.90;;;;;;4983854;28;20273;-74
2022/07/31 12:47:39;;;;;;;;;;;27.40;99.90;;;;;;4982614;28;20866;-74
2022/07/31 12:50:05;;;;;;;;;;;27.40;99.90;;;;;;4985325;28;19913;-75
2022/07/31 12:52:33;;;;;;;;;;;27.20;99.90;;;;;;4986602;28;19914;-74
2022/07/31 12:55:00;;;;;;;;;;;27.20;99.90;;;;;;4980621;28;19913;-74
2022/07/31 12:57:27;;;;;;;;;;;27.50;99.90;;;;;;4981736;28;19914;-74
2022/07/31 12:59:52;;;;;;;;;;;27.50;99.90;;;;;;4984561;28;19952;-75
2022/07/31 13:02:18;;;;;;;;;;;28.00;99.90;;;;;;4991716;28;20009;-74
2022/07/31 13:04:43;;;;;;;;;;;28.30;99.90;;;;;;4989500;28;20078;-75
2022/07/31 13:07:09;;;;;;;;;;;28.20;99.90;;;;;;4992282;28;20166;-75
2022/07/31 13:09:34;;;;;;;;;;;27.80;99.90;;;;;;4996150;28;19914;-79
2022/07/31 13:12:00;;;;;;;;;;;27.50;99.90;;;;;;4974984;28;19924;-77
2022/07/31 13:14:26;;;;;;;;;;;27.00;99.90;;;;;;4988996;28;20141;-78
2022/07/31 13:16:52;;;;;;;;;;;26.30;99.90;;;;;;4977805;28;19936;-80
2022/07/31 13:19:21;;;;;;;;;;;25.80;99.90;;;;;;4990097;28;19914;-78
2022/07/31 13:21:48;;;;;;;;;;;25.40;99.90;;;;;;4982888;28;20023;-78
2022/07/31 13:24:14;;;;;;;;;;;25.50;99.90;;;;;;4980700;28;20285;-80
2022/07/31 13:26:40;;;;;;;;;;;25.70;99.90;;;;;;4981813;28;20016;-80
2022/07/31 13:29:06;;;;;;;;;;;25.60;99.90;;;;;;4986263;28;19952;-80
2022/07/31 13:31:31;;;;;;;;;;;25.50;99.90;;;;;;4987411;28;20434;-79
2022/07/31 13:33:57;;;;;;;;;;;25.30;99.90;;;;;;4989261;28;20242;-77
2022/07/31 13:36:23;;;;;;;;;;;25.30;99.90;;;;;;4986558;28;19921;-81
2022/07/31 13:38:48;;;;;;;;;;;25.00;99.90;;;;;;4976689;28;19920;-79
2022/07/31 13:41:20;;;;;;;;;;;24.90;99.90;;;;;;4970311;28;20630;-80
2022/07/31 13:43:46;;;;;;;;;;;24.90;99.90;;;;;;4969944;28;19913;-78
2022/07/31 13:46:11;;;;;;;;;;;25.20;99.90;;;;;;4968897;28;20064;-82
2022/07/31 13:48:37;;;;;;;;;;;25.40;99.90;;;;;;4971342;28;20281;-78
2022/07/31 13:51:03;;;;;;;;;;;25.80;99.90;;;;;;4988954;28;19913;-81
2022/07/31 13:53:28;;;;;;;;;;;26.00;99.90;;;;;;4981325;28;19940;-81
2022/07/31 13:55:54;;;;;;;;;;;26.20;99.90;;;;;;4984096;28;20598;-86
2022/07/31 13:58:20;;;;;;;;;;;26.50;99.90;;;;;;4967619;28;20015;-85
2022/07/31 14:00:46;;;;;;;;;;;26.80;99.90;;;;;;4979476;28;19971;-78
2022/07/31 14:03:12;;;;;;;;;;;26.90;99.90;;;;;;4978711;28;20572;-81
2022/07/31 14:05:38;;;;;;;;;;;26.90;99.90;;;;;;4980697;28;19921;-80
2022/07/31 14:08:05;;;;;;;;;;;27.30;99.90;;;;;;4979215;28;19925;-78
2022/07/31 14:10:32;;;;;;;;;;;27.30;99.90;;;;;;4980583;28;19980;-79
2022/07/31 14:12:57;;;;;;;;;;;27.60;99.90;;;;;;4948782;28;19922;-79
2022/07/31 14:15:24;;;;;;;;;;;27.60;99.90;;;;;;4965192;28;19917;-79
2022/07/31 14:17:50;;;;;;;;;;;27.00;99.90;;;;;;4979881;28;19968;-80